sensor_id;sensor_type;location;lat;lon;timestamp;temperature;humidity
59208;DHT22;44977;53.132;6.408;2023-04-21T00:03:58;9.40;99.90
59208;DHT22;44977;53.132;6.408;2023-04-21T00:08:59;9.50;99.90
59208;DHT22;44977;53.132;6.408;2023-04-21T00:14:00;9.40;99.90
59208;DHT22;44977;53.132;6.408;2023-04-21T00:19:01;9.40;99.90
59208;DHT22;44977;53.132;6.408;2023-04-21T00:24:06;9.40;99.90
59208;DHT22;44977;53.132;6.408;2023-04-21T00:29:07;9.40;99.90
59208;DHT22;44977;53.132;6.408;2023-04-21T00:34:08;9.40;99.90
59208;DHT22;44977;53.132;6.408;2023-04-21T00:39:08;9.40;99.90
59208;DHT22;44977;53.132;6.408;2023-04-21T00:44:09;9.30;99.90
59208;DHT22;44977;53.132;6.408;2023-04-21T00:49:10;9.30;99.90
59208;DHT22;44977;53.132;6.408;2023-04-21T00:54:13;9.30;99.90
59208;DHT22;44977;53.132;6.408;2023-04-21T00:59:13;9.30;99.90
59208;DHT22;44977;53.132;6.408;2023-04-21T01:04:14;9.20;99.90
59208;DHT22;44977;53.132;6.408;2023-04-21T01:09:15;9.20;99.90
59208;DHT22;44977;53.132;6.408;2023-04-21T01:14:16;9.20;99.90
59208;DHT22;44977;53.132;6.408;2023-04-21T01:19:16;9.20;99.90
59208;DHT22;44977;53.132;6.408;2023-04-21T01:24:18;9.20;99.90
59208;DHT22;44977;53.132;6.408;2023-04-21T01:29:18;9.10;99.90
59208;DHT22;44977;53.132;6.408;2023-04-21T01:34:19;9.10;99.90
59208;DHT22;44977;53.132;6.408;2023-04-21T01:39:20;9.10;99.90
59208;DHT22;44977;53.132;6.408;2023-04-21T01:44:21;9.00;99.90
59208;DHT22;44977;53.132;6.408;2023-04-21T01:49:21;9.00;99.90
59208;DHT22;44977;53.132;6.408;2023-04-21T01:54:22;9.00;99.90
59208;DHT22;44977;53.132;6.408;2023-04-21T01:59:23;9.00;99.90
59208;DHT22;44977;53.132;6.408;2023-04-21T02:04:23;9.00;99.90
59208;DHT22;44977;53.132;6.408;2023-04-21T02:09:24;9.00;99.90
59208;DHT22;44977;53.132;6.408;2023-04-21T02:14:25;9.00;99.90
59208;DHT22;44977;53.132;6.408;2023-04-21T02:19:26;9.00;99.90
59208;DHT22;44977;53.132;6.408;2023-04-21T02:24:26;8.90;99.90
59208;DHT22;44977;53.132;6.408;2023-04-21T02:29:27;8.90;99.90
59208;DHT22;44977;53.132;6.408;2023-04-21T02:34:28;8.80;99.90
59208;DHT22;44977;53.132;6.408;2023-04-21T02:39:29;8.80;99.90
59208;DHT22;44977;53.132;6.408;2023-04-21T02:44:30;8.80;99.90
59208;DHT22;44977;53.132;6.408;2023-04-21T02:49:30;8.80;99.90
59208;DHT22;44977;53.132;6.408;2023-04-21T02:54:31;8.80;99.90
59208;DHT22;44977;53.132;6.408;2023-04-21T02:59:32;8.80;99.90
59208;DHT22;44977;53.132;6.408;2023-04-21T03:04:33;8.80;99.90
59208;DHT22;44977;53.132;6.408;2023-04-21T03:09:34;8.80;99.90
59208;DHT22;44977;53.132;6.408;2023-04-21T03:14:35;8.70;99.90
59208;DHT22;44977;53.132;6.408;2023-04-21T03:19:36;8.70;99.90
59208;DHT22;44977;53.132;6.408;2023-04-21T03:24:36;8.70;99.90
59208;DHT22;44977;53.132;6.408;2023-04-21T03:29:37;8.70;99.90
59208;DHT22;44977;53.132;6.408;2023-04-21T03:34:38;8.70;99.90
59208;DHT22;44977;53.132;6.408;2023-04-21T03:39:38;8.60;99.90
59208;DHT22;44977;53.132;6.408;2023-04-21T03:44:39;8.50;99.90
59208;DHT22;44977;53.132;6.408;2023-04-21T03:49:40;8.50;99.90
59208;DHT22;44977;53.132;6.408;2023-04-21T03:54:40;8.50;99.90
59208;DHT22;44977;53.132;6.408;2023-04-21T03:59:41;8.50;99.90
59208;DHT22;44977;53.132;6.408;2023-04-21T04:04:42;8.50;99.90
59208;DHT22;44977;53.132;6.408;2023-04-21T04:09:42;8.40;99.90
59208;DHT22;44977;53.132;6.408;2023-04-21T04:14:43;8.40;99.90
59208;DHT22;44977;53.132;6.408;2023-04-21T04:19:44;8.40;99.90
59208;DHT22;44977;53.132;6.408;2023-04-21T04:24:45;8.50;99.90
59208;DHT22;44977;53.132;6.408;2023-04-21T04:29:47;8.40;99.90
59208;DHT22;44977;53.132;6.408;2023-04-21T04:34:48;8.40;99.90
59208;DHT22;44977;53.132;6.408;2023-04-21T04:39:54;8.50;99.90
59208;DHT22;44977;53.132;6.408;2023-04-21T04:44:55;8.40;99.90
59208;DHT22;44977;53.132;6.408;2023-04-21T04:49:56;8.50;99.90
59208;DHT22;44977;53.132;6.408;2023-04-21T04:54:57;8.40;99.90
59208;DHT22;44977;53.132;6.408;2023-04-21T04:59:58;8.40;99.90
59208;DHT22;44977;53.132;6.408;2023-04-21T05:04:58;8.40;99.90
59208;DHT22;44977;53.132;6.408;2023-04-21T05:09:59;8.40;99.90
59208;DHT22;44977;53.132;6.408;2023-04-21T05:15:00;8.40;99.90
59208;DHT22;44977;53.132;6.408;2023-04-21T05:20:03;8.50;99.90
59208;DHT22;44977;53.132;6.408;2023-04-21T05:25:05;8.50;99.90
59208;DHT22;44977;53.132;6.408;2023-04-21T05:30:06;8.50;99.90
59208;DHT22;44977;53.132;6.408;2023-04-21T05:35:07;8.60;99.90
59208;DHT22;44977;53.132;6.408;2023-04-21T05:40:08;8.60;99.90
59208;DHT22;44977;53.132;6.408;2023-04-21T05:45:09;8.60;99.90
59208;DHT22;44977;53.132;6.408;2023-04-21T05:50:10;8.70;99.90
59208;DHT22;44977;53.132;6.408;2023-04-21T05:55:11;8.80;99.90
59208;DHT22;44977;53.132;6.408;2023-04-21T06:00:12;8.90;99.90
59208;DHT22;44977;53.132;6.408;2023-04-21T06:05:13;9.00;99.90
59208;DHT22;44977;53.132;6.408;2023-04-21T06:10:13;9.10;99.90
59208;DHT22;44977;53.132;6.408;2023-04-21T06:15:15;9.20;99.90
59208;DHT22;44977;53.132;6.408;2023-04-21T06:20:16;9.30;99.90
59208;DHT22;44977;53.132;6.408;2023-04-21T06:25:17;9.50;99.90
59208;DHT22;44977;53.132;6.408;2023-04-21T06:30:18;9.60;99.90
59208;DHT22;44977;53.132;6.408;2023-04-21T06:35:18;9.80;99.90
59208;DHT22;44977;53.132;6.408;2023-04-21T06:40:20;10.00;99.90
59208;DHT22;44977;53.132;6.408;2023-04-21T06:45:20;10.20;99.90
59208;DHT22;44977;53.132;6.408;2023-04-21T06:50:21;10.30;99.90
59208;DHT22;44977;53.132;6.408;2023-04-21T06:55:22;10.40;99.90
59208;DHT22;44977;53.132;6.408;2023-04-21T07:00:23;10.60;99.90
59208;DHT22;44977;53.132;6.408;2023-04-21T07:05:24;10.70;99.90
59208;DHT22;44977;53.132;6.408;2023-04-21T07:10:25;10.90;99.90
59208;DHT22;44977;53.132;6.408;2023-04-21T07:15:26;11.00;99.90
59208;DHT22;44977;53.132;6.408;2023-04-21T07:20:27;11.30;99.90
59208;DHT22;44977;53.132;6.408;2023-04-21T07:25:27;11.40;99.90
59208;DHT22;44977;53.132;6.408;2023-04-21T07:30:29;11.50;99.90
59208;DHT22;44977;53.132;6.408;2023-04-21T07:35:30;11.70;99.90
59208;DHT22;44977;53.132;6.408;2023-04-21T07:40:30;11.90;99.90
59208;DHT22;44977;53.132;6.408;2023-04-21T07:45:31;12.10;99.90
59208;DHT22;44977;53.132;6.408;2023-04-21T07:50:32;12.20;99.90
59208;DHT22;44977;53.132;6.408;2023-04-21T07:55:35;12.40;99.90
59208;DHT22;44977;53.132;6.408;2023-04-21T08:00:36;12.60;99.90
59208;DHT22;44977;53.132;6.408;2023-04-21T08:05:37;12.90;99.90
59208;DHT22;44977;53.132;6.408;2023-04-21T08:10:37;13.10;99.90
59208;DHT22;44977;53.132;6.408;2023-04-21T08:15:38;13.30;99.90
59208;DHT22;44977;53.132;6.408;2023-04-21T08:20:39;13.60;99.90
59208;DHT22;44977;53.132;6.408;2023-04-21T08:25:40;13.80;99.90
59208;DHT22;44977;53.132;6.408;2023-04-21T08:30:41;14.00;99.90
59208;DHT22;44977;53.132;6.408;2023-04-21T08:35:41;14.20;99.90
59208;DHT22;44977;53.132;6.408;2023-04-21T08:40:42;14.50;99.90
59208;DHT22;44977;53.132;6.408;2023-04-21T08:45:43;14.70;99.90
59208;DHT22;44977;53.132;6.408;2023-04-21T08:50:45;14.90;99.90
59208;DHT22;44977;53.132;6.408;2023-04-21T08:55:51;15.10;99.90
59208;DHT22;44977;53.132;6.408;2023-04-21T09:00:52;15.30;99.90
59208;DHT22;44977;53.132;6.408;2023-04-21T09:05:58;15.60;99.90
59208;DHT22;44977;53.132;6.408;2023-04-21T09:10:59;15.70;99.90
59208;DHT22;44977;53.132;6.408;2023-04-21T09:16:02;15.60;99.90
59208;DHT22;44977;53.132;6.408;2023-04-21T09:21:11;15.40;99.90
59208;DHT22;44977;53.132;6.408;2023-04-21T09:26:12;15.40;99.90
59208;DHT22;44977;53.132;6.408;2023-04-21T09:31:23;15.50;99.90
59208;DHT22;44977;53.132;6.408;2023-04-21T09:36:25;15.60;99.90
59208;DHT22;44977;53.132;6.408;2023-04-21T09:41:27;15.70;99.90
59208;DHT22;44977;53.132;6.408;2023-04-21T09:46:32;15.80;99.90
59208;DHT22;44977;53.132;6.408;2023-04-21T09:51:33;15.90;99.90
59208;DHT22;44977;53.132;6.408;2023-04-21T09:56:36;16.10;99.90
59208;DHT22;44977;53.132;6.408;2023-04-21T10:01:39;16.20;99.90
59208;DHT22;44977;53.132;6.408;2023-04-21T10:06:41;16.30;99.90
59208;DHT22;44977;53.132;6.408;2023-04-21T10:11:42;16.40;99.30
59208;DHT22;44977;53.132;6.408;2023-04-21T10:16:43;16.70;99.60
59208;DHT22;44977;53.132;6.408;2023-04-21T10:21:43;17.00;99.90
59208;DHT22;44977;53.132;6.408;2023-04-21T10:26:44;17.30;99.10
59208;DHT22;44977;53.132;6.408;2023-04-21T10:31:52;17.50;96.50
59208;DHT22;44977;53.132;6.408;2023-04-21T10:41:57;18.00;91.70
59208;DHT22;44977;53.132;6.408;2023-04-21T10:47:27;18.10;90.30
59208;DHT22;44977;53.132;6.408;2023-04-21T10:52:31;18.30;89.50
59208;DHT22;44977;53.132;6.408;2023-04-21T10:57:35;18.50;89.10
59208;DHT22;44977;53.132;6.408;2023-04-21T11:02:36;18.70;86.00
59208;DHT22;44977;53.132;6.408;2023-04-21T11:07:37;18.70;83.70
59208;DHT22;44977;53.132;6.408;2023-04-21T11:12:39;18.70;82.80
59208;DHT22;44977;53.132;6.408;2023-04-21T11:17:44;18.90;81.50
59208;DHT22;44977;53.132;6.408;2023-04-21T11:22:51;19.10;80.90
59208;DHT22;44977;53.132;6.408;2023-04-21T11:27:56;19.00;78.70
59208;DHT22;44977;53.132;6.408;2023-04-21T11:32:56;19.10;79.50
59208;DHT22;44977;53.132;6.408;2023-04-21T11:37:57;19.10;77.60
59208;DHT22;44977;53.132;6.408;2023-04-21T11:42:58;19.00;77.40
59208;DHT22;44977;53.132;6.408;2023-04-21T11:48:15;19.00;78.00
59208;DHT22;44977;53.132;6.408;2023-04-21T11:53:17;19.00;77.50
59208;DHT22;44977;53.132;6.408;2023-04-21T11:58:20;19.30;70.70
59208;DHT22;44977;53.132;6.408;2023-04-21T12:03:21;19.50;69.70
59208;DHT22;44977;53.132;6.408;2023-04-21T12:08:23;19.70;68.20
59208;DHT22;44977;53.132;6.408;2023-04-21T12:13:27;19.80;65.40
59208;DHT22;44977;53.132;6.408;2023-04-21T12:18:30;19.70;64.30
59208;DHT22;44977;53.132;6.408;2023-04-21T12:23:31;19.70;64.60
59208;DHT22;44977;53.132;6.408;2023-04-21T12:28:32;19.70;62.80
59208;DHT22;44977;53.132;6.408;2023-04-21T12:33:32;19.60;61.90
59208;DHT22;44977;53.132;6.408;2023-04-21T12:38:35;19.50;64.40
59208;DHT22;44977;53.132;6.408;2023-04-21T12:43:36;19.50;63.40
59208;DHT22;44977;53.132;6.408;2023-04-21T12:48:37;19.40;62.90
59208;DHT22;44977;53.132;6.408;2023-04-21T12:53:37;19.50;64.70
59208;DHT22;44977;53.132;6.408;2023-04-21T12:58:39;19.60;62.60
59208;DHT22;44977;53.132;6.408;2023-04-21T13:03:41;19.60;60.80
59208;DHT22;44977;53.132;6.408;2023-04-21T13:08:42;19.50;60.30
59208;DHT22;44977;53.132;6.408;2023-04-21T13:13:43;19.40;61.40
59208;DHT22;44977;53.132;6.408;2023-04-21T13:18:44;19.50;61.10
59208;DHT22;44977;53.132;6.408;2023-04-21T13:23:45;19.50;60.10
59208;DHT22;44977;53.132;6.408;2023-04-21T13:28:46;19.40;60.90
59208;DHT22;44977;53.132;6.408;2023-04-21T13:33:47;19.40;59.80
59208;DHT22;44977;53.132;6.408;2023-04-21T13:38:48;19.40;59.10
59208;DHT22;44977;53.132;6.408;2023-04-21T13:43:50;19.60;57.30
59208;DHT22;44977;53.132;6.408;2023-04-21T13:48:51;19.80;54.70
59208;DHT22;44977;53.132;6.408;2023-04-21T13:53:52;19.90;54.70
59208;DHT22;44977;53.132;6.408;2023-04-21T13:58:53;19.90;55.20
59208;DHT22;44977;53.132;6.408;2023-04-21T14:03:54;19.90;54.40
59208;DHT22;44977;53.132;6.408;2023-04-21T14:08:56;19.90;55.40
59208;DHT22;44977;53.132;6.408;2023-04-21T14:13:57;19.80;56.30
59208;DHT22;44977;53.132;6.408;2023-04-21T14:18:57;19.90;55.40
59208;DHT22;44977;53.132;6.408;2023-04-21T14:23:58;19.80;54.70
59208;DHT22;44977;53.132;6.408;2023-04-21T14:28:59;19.80;54.90
59208;DHT22;44977;53.132;6.408;2023-04-21T14:34:00;19.70;54.50
59208;DHT22;44977;53.132;6.408;2023-04-21T14:39:01;19.70;54.00
59208;DHT22;44977;53.132;6.408;2023-04-21T14:44:02;19.70;54.10
59208;DHT22;44977;53.132;6.408;2023-04-21T14:49:03;19.90;53.70
59208;DHT22;44977;53.132;6.408;2023-04-21T14:54:04;20.10;54.60
59208;DHT22;44977;53.132;6.408;2023-04-21T14:59:05;20.10;54.20
59208;DHT22;44977;53.132;6.408;2023-04-21T15:04:06;20.10;54.90
59208;DHT22;44977;53.132;6.408;2023-04-21T15:09:07;20.10;54.00
59208;DHT22;44977;53.132;6.408;2023-04-21T15:14:07;20.10;53.10
59208;DHT22;44977;53.132;6.408;2023-04-21T15:19:08;20.10;53.40
59208;DHT22;44977;53.132;6.408;2023-04-21T15:24:09;20.10;53.60
59208;DHT22;44977;53.132;6.408;2023-04-21T15:29:10;20.10;53.80
59208;DHT22;44977;53.132;6.408;2023-04-21T15:34:10;19.90;54.10
59208;DHT22;44977;53.132;6.408;2023-04-21T15:39:11;19.90;54.50
59208;DHT22;44977;53.132;6.408;2023-04-21T15:44:13;19.90;54.40
59208;DHT22;44977;53.132;6.408;2023-04-21T15:49:14;19.90;55.70
59208;DHT22;44977;53.132;6.408;2023-04-21T15:54:15;20.00;55.20
59208;DHT22;44977;53.132;6.408;2023-04-21T15:59:15;20.10;53.30
59208;DHT22;44977;53.132;6.408;2023-04-21T16:04:16;20.20;53.40
59208;DHT22;44977;53.132;6.408;2023-04-21T16:09:17;20.10;53.20
59208;DHT22;44977;53.132;6.408;2023-04-21T16:14:17;20.10;53.70
59208;DHT22;44977;53.132;6.408;2023-04-21T16:19:18;20.20;53.40
59208;DHT22;44977;53.132;6.408;2023-04-21T16:24:19;20.20;52.50
59208;DHT22;44977;53.132;6.408;2023-04-21T16:29:20;20.20;53.50
59208;DHT22;44977;53.132;6.408;2023-04-21T16:34:20;20.10;53.00
59208;DHT22;44977;53.132;6.408;2023-04-21T16:39:21;20.10;53.40
59208;DHT22;44977;53.132;6.408;2023-04-21T16:44:22;20.10;52.80
59208;DHT22;44977;53.132;6.408;2023-04-21T16:49:23;20.00;53.60
59208;DHT22;44977;53.132;6.408;2023-04-21T16:54:24;19.90;54.10
59208;DHT22;44977;53.132;6.408;2023-04-21T16:59:24;19.90;54.40
59208;DHT22;44977;53.132;6.408;2023-04-21T17:04:25;19.70;54.30
59208;DHT22;44977;53.132;6.408;2023-04-21T17:09:26;19.60;53.90
59208;DHT22;44977;53.132;6.408;2023-04-21T17:14:27;19.50;54.10
59208;DHT22;44977;53.132;6.408;2023-04-21T17:19:27;19.30;54.60
59208;DHT22;44977;53.132;6.408;2023-04-21T17:24:28;19.30;54.80
59208;DHT22;44977;53.132;6.408;2023-04-21T17:29:29;19.20;54.60
59208;DHT22;44977;53.132;6.408;2023-04-21T17:34:29;19.10;55.90
59208;DHT22;44977;53.132;6.408;2023-04-21T17:39:31;19.00;55.20
59208;DHT22;44977;53.132;6.408;2023-04-21T17:44:34;18.90;55.10
59208;DHT22;44977;53.132;6.408;2023-04-21T17:49:36;18.80;55.90
59208;DHT22;44977;53.132;6.408;2023-04-21T17:54:36;18.80;56.10
59208;DHT22;44977;53.132;6.408;2023-04-21T17:59:37;18.70;56.30
59208;DHT22;44977;53.132;6.408;2023-04-21T18:04:38;18.70;55.90
59208;DHT22;44977;53.132;6.408;2023-04-21T18:09:39;18.50;56.30
59208;DHT22;44977;53.132;6.408;2023-04-21T18:14:40;18.50;56.30
59208;DHT22;44977;53.132;6.408;2023-04-21T18:19:41;18.40;57.10
59208;DHT22;44977;53.132;6.408;2023-04-21T18:24:42;18.40;57.10
59208;DHT22;44977;53.132;6.408;2023-04-21T18:29:42;18.30;57.80
59208;DHT22;44977;53.132;6.408;2023-04-21T18:34:43;18.20;58.10
59208;DHT22;44977;53.132;6.408;2023-04-21T18:39:44;18.20;59.00
59208;DHT22;44977;53.132;6.408;2023-04-21T18:44:45;18.10;58.40
59208;DHT22;44977;53.132;6.408;2023-04-21T18:49:51;18.00;58.80
59208;DHT22;44977;53.132;6.408;2023-04-21T18:54:52;17.90;59.50
59208;DHT22;44977;53.132;6.408;2023-04-21T18:59:52;17.80;59.50
59208;DHT22;44977;53.132;6.408;2023-04-21T19:04:53;17.70;59.50
59208;DHT22;44977;53.132;6.408;2023-04-21T19:09:54;17.60;60.00
59208;DHT22;44977;53.132;6.408;2023-04-21T19:14:55;17.50;60.60
59208;DHT22;44977;53.132;6.408;2023-04-21T19:19:56;17.40;60.80
59208;DHT22;44977;53.132;6.408;2023-04-21T19:24:56;17.20;61.60
59208;DHT22;44977;53.132;6.408;2023-04-21T19:29:57;17.10;62.20
59208;DHT22;44977;53.132;6.408;2023-04-21T19:34:58;17.10;62.00
59208;DHT22;44977;53.132;6.408;2023-04-21T19:39:59;17.00;61.70
59208;DHT22;44977;53.132;6.408;2023-04-21T19:44:59;16.90;61.70
59208;DHT22;44977;53.132;6.408;2023-04-21T19:50:03;16.80;61.90
59208;DHT22;44977;53.132;6.408;2023-04-21T19:55:04;16.80;61.70
59208;DHT22;44977;53.132;6.408;2023-04-21T20:00:05;16.70;62.20
59208;DHT22;44977;53.132;6.408;2023-04-21T20:05:08;16.60;62.40
59208;DHT22;44977;53.132;6.408;2023-04-21T20:10:10;16.60;62.70
59208;DHT22;44977;53.132;6.408;2023-04-21T20:15:11;16.50;63.20
59208;DHT22;44977;53.132;6.408;2023-04-21T20:20:13;16.50;63.50
59208;DHT22;44977;53.132;6.408;2023-04-21T20:25:14;16.50;63.80
59208;DHT22;44977;53.132;6.408;2023-04-21T20:30:14;16.40;66.50
59208;DHT22;44977;53.132;6.408;2023-04-21T20:35:15;16.20;75.50
59208;DHT22;44977;53.132;6.408;2023-04-21T20:40:16;16.00;81.80
59208;DHT22;44977;53.132;6.408;2023-04-21T20:45:18;15.70;90.40
59208;DHT22;44977;53.132;6.408;2023-04-21T20:50:19;15.50;95.90
59208;DHT22;44977;53.132;6.408;2023-04-21T20:55:20;15.30;99.90
59208;DHT22;44977;53.132;6.408;2023-04-21T21:00:20;15.30;99.90
59208;DHT22;44977;53.132;6.408;2023-04-21T21:05:21;15.10;99.90
59208;DHT22;44977;53.132;6.408;2023-04-21T21:10:22;15.10;99.90
59208;DHT22;44977;53.132;6.408;2023-04-21T21:15:22;15.00;99.90
59208;DHT22;44977;53.132;6.408;2023-04-21T21:20:23;15.00;99.90
59208;DHT22;44977;53.132;6.408;2023-04-21T21:25:24;14.90;99.90
59208;DHT22;44977;53.132;6.408;2023-04-21T21:30:24;14.80;99.90
59208;DHT22;44977;53.132;6.408;2023-04-21T21:35:25;14.80;99.90
59208;DHT22;44977;53.132;6.408;2023-04-21T21:40:26;14.80;99.90
59208;DHT22;44977;53.132;6.408;2023-04-21T21:45:27;14.80;99.90
59208;DHT22;44977;53.132;6.408;2023-04-21T21:50:27;14.70;99.90
59208;DHT22;44977;53.132;6.408;2023-04-21T21:55:28;14.70;99.90
59208;DHT22;44977;53.132;6.408;2023-04-21T22:00:29;14.60;99.90
59208;DHT22;44977;53.132;6.408;2023-04-21T22:05:30;14.50;99.90
59208;DHT22;44977;53.132;6.408;2023-04-21T22:10:30;14.40;99.90
59208;DHT22;44977;53.132;6.408;2023-04-21T22:15:31;14.30;99.90
59208;DHT22;44977;53.132;6.408;2023-04-21T22:20:32;14.20;99.90
59208;DHT22;44977;53.132;6.408;2023-04-21T22:25:33;14.20;99.90
59208;DHT22;44977;53.132;6.408;2023-04-21T22:30:34;14.10;99.90
59208;DHT22;44977;53.132;6.408;2023-04-21T22:35:34;14.10;99.90
59208;DHT22;44977;53.132;6.408;2023-04-21T22:40:35;14.20;99.90
59208;DHT22;44977;53.132;6.408;2023-04-21T22:45:36;14.20;99.90
59208;DHT22;44977;53.132;6.408;2023-04-21T22:50:37;14.10;99.90
59208;DHT22;44977;53.132;6.408;2023-04-21T22:55:37;14.10;99.90
59208;DHT22;44977;53.132;6.408;2023-04-21T23:00:38;14.10;99.90
59208;DHT22;44977;53.132;6.408;2023-04-21T23:05:39;14.00;99.90
59208;DHT22;44977;53.132;6.408;2023-04-21T23:10:40;13.90;99.90
59208;DHT22;44977;53.132;6.408;2023-04-21T23:15:41;13.70;99.90
59208;DHT22;44977;53.132;6.408;2023-04-21T23:20:42;13.50;99.90
59208;DHT22;44977;53.132;6.408;2023-04-21T23:25:42;13.20;99.90
59208;DHT22;44977;53.132;6.408;2023-04-21T23:30:43;13.20;99.90
59208;DHT22;44977;53.132;6.408;2023-04-21T23:35:44;13.10;99.90
59208;DHT22;44977;53.132;6.408;2023-04-21T23:40:45;13.00;99.90
59208;DHT22;44977;53.132;6.408;2023-04-21T23:45:46;12.90;99.90
59208;DHT22;44977;53.132;6.408;2023-04-21T23:50:46;12.90;99.90
59208;DHT22;44977;53.132;6.408;2023-04-21T23:55:47;12.80;99.90
